createdAt,value
2022-10-25T00:01:49.604Z,96.40
2022-10-25T00:04:18.759Z,95.49
2022-10-25T00:06:46.560Z,95.57
2022-10-25T00:09:15.485Z,94.62
2022-10-25T00:11:43.617Z,94.33
2022-10-25T00:14:19.775Z,94.41
2022-10-25T00:16:48.649Z,95.04
2022-10-25T00:19:16.484Z,94.70
2022-10-25T00:21:45.912Z,94.37
2022-10-25T00:24:15.051Z,94.33
2022-10-25T00:26:43.938Z,94.11
2022-10-25T00:29:12.673Z,93.42
2022-10-25T00:31:40.617Z,93.18
2022-10-25T00:34:08.243Z,93.14
2022-10-25T00:36:36.314Z,92.32
2022-10-25T00:39:04.171Z,92.42
2022-10-25T00:41:37.601Z,92.11
2022-10-25T00:44:47.750Z,91.63
2022-10-25T00:47:21.290Z,91.27
2022-10-25T00:50:07.200Z,91.33
2022-10-25T00:52:38.333Z,91.73
2022-10-25T00:55:10.857Z,91.85
2022-10-25T00:58:06.686Z,92.52
2022-10-25T01:00:34.288Z,92.36
2022-10-25T01:03:02.481Z,91.52
2022-10-25T01:05:30.105Z,91.30
2022-10-25T01:07:58.131Z,91.47
2022-10-25T01:10:27.308Z,91.79
2022-10-25T01:12:58.307Z,91.83
2022-10-25T01:15:56.378Z,91.71
2022-10-25T01:18:43.584Z,91.69
2022-10-25T01:21:32.367Z,91.22
2022-10-25T01:24:10.704Z,92.30
2022-10-25T01:27:05.279Z,92.17
2022-10-25T01:30:06.371Z,92.25
2022-10-25T01:33:34.500Z,92.61
2022-10-25T01:36:41.422Z,92.29
2022-10-25T01:39:18.475Z,92.48
2022-10-25T01:42:07.177Z,93.56
2022-10-25T01:44:54.682Z,93.98
2022-10-25T01:47:40.094Z,95.06
2022-10-25T01:50:23.337Z,95.57
2022-10-25T01:52:51.359Z,95.92
2022-10-25T01:55:22.609Z,96.47
2022-10-25T01:58:32.756Z,96.42
2022-10-25T02:01:26.358Z,96.60
2022-10-25T02:04:32.688Z,96.06
2022-10-25T02:07:11.371Z,96.10
2022-10-25T02:10:17.422Z,96.00
2022-10-25T02:13:02.698Z,95.75
2022-10-25T02:15:41.086Z,95.62
2022-10-25T02:18:17.475Z,95.43
2022-10-25T02:20:47.954Z,95.66
2022-10-25T02:23:18.672Z,95.41
2022-10-25T02:25:46.475Z,95.37
2022-10-25T02:28:17.859Z,95.69
2022-10-25T02:30:46.401Z,95.67
2022-10-25T02:33:14.079Z,95.57
2022-10-25T02:35:42.265Z,95.53
2022-10-25T02:38:10.991Z,95.78
2022-10-25T02:40:38.923Z,96.30
2022-10-25T02:43:07.171Z,96.00
2022-10-25T02:45:34.875Z,96.18
2022-10-25T02:48:09.194Z,96.38
2022-10-25T02:50:37.706Z,96.25
2022-10-25T02:53:05.179Z,96.10
2022-10-25T02:55:33.498Z,96.17
2022-10-25T02:58:01.376Z,96.29
2022-10-25T03:00:30.525Z,95.75
2022-10-25T03:03:07.954Z,95.67
2022-10-25T03:05:38.468Z,95.86
2022-10-25T03:08:06.158Z,95.64
2022-10-25T03:10:36.565Z,95.54
2022-10-25T03:13:04.281Z,95.61
2022-10-25T03:15:31.889Z,95.30
2022-10-25T03:18:01.413Z,95.87
2022-10-25T03:20:29.580Z,96.04
2022-10-25T03:22:58.629Z,96.21
2022-10-25T03:25:26.585Z,96.03
2022-10-25T03:27:54.908Z,95.92
2022-10-25T03:30:22.773Z,96.10
2022-10-25T03:32:50.768Z,95.98
2022-10-25T03:35:18.617Z,96.07
2022-10-25T03:37:50.028Z,95.80
2022-10-25T03:40:19.324Z,95.93
2022-10-25T03:42:47.856Z,95.19
2022-10-25T03:45:15.471Z,96.65
2022-10-25T03:47:43.533Z,96.20
2022-10-25T03:50:13.091Z,96.25
2022-10-25T03:52:41.129Z,95.90
2022-10-25T03:55:09.687Z,94.90
2022-10-25T03:57:37.648Z,96.27
2022-10-25T04:00:06.489Z,95.56
2022-10-25T04:02:34.978Z,95.66
2022-10-25T04:05:04.246Z,96.05
2022-10-25T04:07:33.307Z,96.49
2022-10-25T04:10:01.285Z,96.38
2022-10-25T04:12:30.439Z,96.22
2022-10-25T04:14:59.208Z,96.01
2022-10-25T04:17:27.957Z,96.07
2022-10-25T04:19:55.818Z,95.94
2022-10-25T04:22:24.034Z,95.88
2022-10-25T04:24:51.979Z,95.85
2022-10-25T04:27:19.568Z,95.14
2022-10-25T04:29:47.581Z,94.98
2022-10-25T04:32:15.418Z,94.91
2022-10-25T04:34:43.896Z,95.28
2022-10-25T04:37:12.293Z,95.47
2022-10-25T04:39:40.796Z,95.36
2022-10-25T04:44:36.823Z,95.53
2022-10-25T04:47:06.579Z,95.78
2022-10-25T04:49:43.251Z,95.36
2022-10-25T04:52:13.487Z,95.81
2022-10-25T04:54:41.719Z,95.39
2022-10-25T04:57:09.595Z,95.78
2022-10-25T04:59:37.079Z,95.10
2022-10-25T05:02:05.717Z,96.00
2022-10-25T05:04:33.470Z,95.53
2022-10-25T05:07:01.407Z,95.83
2022-10-25T05:09:28.986Z,95.28
2022-10-25T05:12:02.242Z,95.44
2022-10-25T05:14:30.688Z,95.93
2022-10-25T05:16:58.406Z,95.80
2022-10-25T05:32:13.607Z,96.49
2022-10-25T05:34:41.915Z,96.12
2022-10-25T05:37:10.529Z,96.28
2022-10-25T05:39:38.515Z,95.98
2022-10-25T05:42:06.754Z,95.82
2022-10-25T05:44:34.294Z,95.73
2022-10-25T05:47:01.994Z,95.62
2022-10-25T05:49:29.584Z,95.73
2022-10-25T05:51:58.142Z,95.92
2022-10-25T05:54:25.682Z,96.11
2022-10-25T05:56:53.279Z,96.58
2022-10-25T05:59:20.749Z,96.29
2022-10-25T06:01:48.483Z,96.48
2022-10-25T06:04:17.114Z,96.56
2022-10-25T06:06:47.205Z,96.22
2022-10-25T06:09:15.056Z,95.94
2022-10-25T06:11:42.749Z,95.71
2022-10-25T06:14:11.679Z,95.80
2022-10-25T06:16:42.641Z,95.91
2022-10-25T06:19:10.597Z,96.22
2022-10-25T06:21:38.451Z,96.01
2022-10-25T06:24:06.704Z,95.96
2022-10-25T06:26:34.283Z,95.97
2022-10-25T06:29:04.442Z,95.90
2022-10-25T06:31:34.206Z,95.87
2022-10-25T06:34:02.934Z,95.98
2022-10-25T06:36:31.848Z,96.00
2022-10-25T06:39:05.544Z,95.77
2022-10-25T06:41:33.872Z,95.62
2022-10-25T06:44:06.294Z,95.74
2022-10-25T06:47:11.522Z,95.51
2022-10-25T06:49:25.774Z,95.53
2022-10-25T06:51:53.352Z,95.31
2022-10-25T06:54:20.911Z,95.89
2022-10-25T06:56:48.468Z,95.51
2022-10-25T06:59:16.028Z,95.84
2022-10-25T07:01:43.695Z,96.27
2022-10-25T07:04:11.361Z,96.08
2022-10-25T07:06:39.407Z,96.19
2022-10-25T07:09:09.371Z,95.83
2022-10-25T07:11:36.996Z,95.95
2022-10-25T07:14:04.852Z,95.64
2022-10-25T07:16:33.152Z,95.88
2022-10-25T07:19:03.025Z,95.88
2022-10-25T07:21:32.766Z,96.16
2022-10-25T07:24:01.273Z,96.23
2022-10-25T07:26:35.381Z,95.61
2022-10-25T07:29:04.096Z,95.02
2022-10-25T07:31:35.789Z,96.86
2022-10-25T07:34:05.502Z,95.80
2022-10-25T07:36:33.933Z,95.25
2022-10-25T07:39:04.463Z,95.30
2022-10-25T07:41:32.003Z,97.31
2022-10-25T07:43:59.560Z,97.77
2022-10-25T07:46:28.149Z,96.89
2022-10-25T07:48:55.694Z,97.00
2022-10-25T07:51:23.271Z,96.71
2022-10-25T07:53:50.903Z,96.58
2022-10-25T07:56:23.483Z,95.60
2022-10-25T07:58:52.782Z,96.64
2022-10-25T08:01:28.843Z,94.96
2022-10-25T08:03:57.401Z,94.15
2022-10-25T08:06:26.450Z,93.37
2022-10-25T08:08:54.462Z,93.30
2022-10-25T08:11:22.118Z,93.40
2022-10-25T08:13:51.021Z,94.92
2022-10-25T08:16:19.362Z,95.58
2022-10-25T08:18:49.192Z,95.72
2022-10-25T08:21:17.015Z,92.55
2022-10-25T08:23:44.629Z,94.39
2022-10-25T08:26:12.102Z,92.36
2022-10-25T08:28:40.987Z,94.77
2022-10-25T08:31:08.716Z,94.49
2022-10-25T08:33:36.280Z,93.69
2022-10-25T08:36:04.414Z,95.30
2022-10-25T08:38:34.407Z,93.81
2022-10-25T08:41:14.862Z,92.51
2022-10-25T08:44:09.604Z,93.29
2022-10-25T08:46:41.648Z,91.68
2022-10-25T08:50:05.669Z,91.98
2022-10-25T08:52:53.853Z,89.56
2022-10-25T08:55:44.559Z,91.18
2022-10-25T08:58:37.825Z,92.54
2022-10-25T09:01:17.367Z,92.45
2022-10-25T09:03:45.366Z,90.10
2022-10-25T09:06:54.671Z,88.70
2022-10-25T09:09:46.467Z,90.39
2022-10-25T09:13:10.879Z,88.06
2022-10-25T09:16:10.853Z,85.25
2022-10-25T09:18:48.884Z,84.92
2022-10-25T09:21:54.959Z,85.84
2022-10-25T09:24:57.722Z,84.84
2022-10-25T09:27:44.109Z,82.80
2022-10-25T09:30:13.477Z,83.14
2022-10-25T09:32:51.450Z,83.28
2022-10-25T09:35:46.860Z,84.05
2022-10-25T09:38:26.701Z,81.10
2022-10-25T09:41:23.886Z,83.78
2022-10-25T09:44:18.343Z,84.87
2022-10-25T09:47:24.806Z,83.39
2022-10-25T09:49:59.694Z,82.64
2022-10-25T09:52:46.840Z,83.96
2022-10-25T09:55:40.155Z,84.39
2022-10-25T09:58:23.525Z,81.04
2022-10-25T10:00:53.254Z,82.18
2022-10-25T10:03:21.685Z,82.67
2022-10-25T10:06:09.217Z,81.78
2022-10-25T10:08:37.119Z,83.04
2022-10-25T10:11:05.727Z,81.47
2022-10-25T10:14:15.226Z,81.76
2022-10-25T10:16:53.504Z,80.69
2022-10-25T10:19:26.013Z,80.42
2022-10-25T10:22:09.701Z,80.34
2022-10-25T10:24:43.090Z,81.18
2022-10-25T10:27:29.998Z,81.25
2022-10-25T10:30:07.393Z,82.14
2022-10-25T10:32:37.758Z,81.27
2022-10-25T10:35:11.883Z,81.23
2022-10-25T10:37:39.302Z,79.71
2022-10-25T10:40:23.867Z,79.86
2022-10-25T10:42:52.175Z,80.22
2022-10-25T10:45:22.361Z,81.95
2022-10-25T10:47:49.689Z,79.32
2022-10-25T10:50:29.218Z,80.18
2022-10-25T10:53:00.970Z,79.81
2022-10-25T10:55:47.592Z,79.69
2022-10-25T10:58:34.504Z,80.04
2022-10-25T11:01:08.099Z,77.67
2022-10-25T11:03:58.872Z,79.68
2022-10-25T11:06:36.500Z,78.98
2022-10-25T11:09:13.256Z,79.66
2022-10-25T11:11:41.561Z,77.42
2022-10-25T11:14:22.736Z,76.95
2022-10-25T11:17:17.048Z,76.47
2022-10-25T11:20:00.038Z,76.59
2022-10-25T11:22:57.953Z,77.15
2022-10-25T11:25:42.930Z,73.55
2022-10-25T11:28:44.675Z,75.39
2022-10-25T11:31:58.311Z,76.85
2022-10-25T11:34:39.701Z,77.02
2022-10-25T11:37:32.567Z,76.95
2022-10-25T11:40:39.939Z,76.86
2022-10-25T11:43:49.961Z,76.01
2022-10-25T11:46:59.023Z,76.07
2022-10-25T11:49:56.982Z,77.03
2022-10-25T11:53:20.405Z,75.24
2022-10-25T11:56:19.438Z,75.00
2022-10-25T11:59:20.994Z,76.03
2022-10-25T12:02:04.597Z,76.65
2022-10-25T12:04:55.061Z,75.54
2022-10-25T12:08:02.269Z,76.07
2022-10-25T12:10:41.650Z,75.84
2022-10-25T12:13:25.339Z,76.41
2022-10-25T12:15:56.918Z,74.40
2022-10-25T12:18:37.947Z,74.93
2022-10-25T12:29:52.059Z,76.73
2022-10-25T12:32:39.204Z,75.01
2022-10-25T12:35:33.157Z,73.75
2022-10-25T12:38:07.374Z,73.27
2022-10-25T12:40:44.528Z,73.45
2022-10-25T12:43:57.723Z,74.04
2022-10-25T12:46:38.541Z,72.89
2022-10-25T12:49:23.868Z,71.18
2022-10-25T12:52:20.973Z,70.43
2022-10-25T12:55:18.234Z,71.07
2022-10-25T12:58:17.972Z,71.19
2022-10-25T13:01:10.672Z,71.27
2022-10-25T13:04:06.300Z,71.27
2022-10-25T13:20:26.906Z,71.16
2022-10-25T13:45:24.387Z,72.40
2022-10-25T13:48:01.286Z,72.77
2022-10-25T13:50:34.876Z,73.00
2022-10-25T13:53:26.366Z,73.43
2022-10-25T13:56:03.802Z,74.57
2022-10-25T13:58:32.306Z,74.49
2022-10-25T14:01:18.555Z,75.09
2022-10-25T14:03:54.478Z,75.04
2022-10-25T14:06:41.408Z,75.51
2022-10-25T14:09:40.018Z,74.19
2022-10-25T14:12:20.387Z,74.44
2022-10-25T14:15:05.092Z,74.33
2022-10-25T14:17:40.968Z,74.57
2022-10-25T14:20:16.937Z,72.72
2022-10-25T14:22:53.672Z,70.82
2022-10-25T14:25:53.375Z,72.32
2022-10-25T14:28:31.156Z,70.50
2022-10-25T14:31:05.851Z,72.17
2022-10-25T14:33:46.704Z,73.47
2022-10-25T14:36:33.223Z,72.11
2022-10-25T14:39:25.675Z,72.91
2022-10-25T14:41:56.274Z,71.35
2022-10-25T14:44:29.629Z,71.80
2022-10-25T14:46:59.822Z,71.68
2022-10-25T14:49:28.137Z,72.86
2022-10-25T14:52:03.447Z,73.27
2022-10-25T14:54:34.807Z,72.61
2022-10-25T14:57:10.856Z,73.83
2022-10-25T14:59:47.091Z,72.90
2022-10-25T15:02:30.483Z,73.67
2022-10-25T15:05:00.590Z,74.62
2022-10-25T15:07:38.742Z,73.92
2022-10-25T15:10:07.834Z,75.17
2022-10-25T15:12:41.731Z,74.24
2022-10-25T15:15:36.535Z,75.76
2022-10-25T15:18:05.227Z,75.11
2022-10-25T15:20:37.104Z,74.41
2022-10-25T15:23:20.997Z,75.07
2022-10-25T15:25:51.120Z,76.05
2022-10-25T15:28:19.905Z,75.91
2022-10-25T15:30:50.251Z,74.30
2022-10-25T15:33:27.441Z,76.50
2022-10-25T15:36:03.865Z,77.05
2022-10-25T15:39:05.502Z,76.69
2022-10-25T15:41:23.541Z,76.23
2022-10-25T15:43:52.069Z,75.85
2022-10-25T15:46:35.905Z,75.74
2022-10-25T15:49:08.628Z,76.08
2022-10-25T15:51:40.881Z,76.82
2022-10-25T15:54:21.860Z,77.99
2022-10-25T15:56:50.231Z,76.99
2022-10-25T15:59:17.883Z,77.70
2022-10-25T16:04:21.246Z,77.31
2022-10-25T16:06:49.034Z,77.75
2022-10-25T16:09:16.831Z,77.67
2022-10-25T16:11:48.358Z,77.68
2022-10-25T16:14:26.523Z,77.19
2022-10-25T16:16:54.465Z,76.99
2022-10-25T16:19:22.292Z,77.09
2022-10-25T16:21:50.200Z,77.49
2022-10-25T16:24:18.323Z,77.39
2022-10-25T16:26:48.740Z,77.53
2022-10-25T16:29:24.386Z,77.79
2022-10-25T16:31:53.910Z,77.70
2022-10-25T16:34:21.523Z,78.04
2022-10-25T16:36:53.643Z,77.95
2022-10-25T16:39:22.407Z,77.72
2022-10-25T16:41:52.120Z,77.50
2022-10-25T16:44:20.425Z,77.61
2022-10-25T16:46:48.136Z,77.57
2022-10-25T16:49:15.654Z,77.64
2022-10-25T16:51:44.998Z,77.92
2022-10-25T16:54:13.220Z,77.47
2022-10-25T16:56:41.048Z,77.47
2022-10-25T16:59:08.792Z,78.01
2022-10-25T17:01:41.273Z,77.79
2022-10-25T17:04:11.587Z,77.77
2022-10-25T17:06:41.620Z,77.46
2022-10-25T17:09:09.873Z,77.45
2022-10-25T17:11:37.560Z,77.58
2022-10-25T17:14:05.324Z,77.06
2022-10-25T17:16:33.537Z,77.55
2022-10-25T17:19:03.270Z,77.62
2022-10-25T17:21:33.359Z,77.76
2022-10-25T17:24:01.007Z,77.42
2022-10-25T17:26:29.119Z,77.14
2022-10-25T17:28:58.864Z,77.22
2022-10-25T17:31:28.369Z,77.05
2022-10-25T17:33:57.056Z,77.61
2022-10-25T17:36:24.613Z,77.12
2022-10-25T17:38:56.754Z,77.01
2022-10-25T17:41:24.783Z,76.97
2022-10-25T17:43:55.928Z,76.87
2022-10-25T17:46:29.579Z,76.96
2022-10-25T17:49:03.936Z,77.11
2022-10-25T17:51:33.172Z,77.02
2022-10-25T17:54:01.132Z,77.08
2022-10-25T17:56:29.285Z,77.29
2022-10-25T17:59:04.324Z,77.20
2022-10-25T18:01:36.142Z,77.37
2022-10-25T18:04:04.345Z,77.51
2022-10-25T18:06:32.225Z,77.53
2022-10-25T18:09:00.393Z,77.67
2022-10-25T18:11:28.841Z,77.92
2022-10-25T18:14:00.101Z,78.20
2022-10-25T18:16:31.141Z,77.73
2022-10-25T18:19:02.264Z,77.97
2022-10-25T18:21:30.755Z,77.74
2022-10-25T18:24:02.820Z,78.07
2022-10-25T18:26:31.643Z,78.12
2022-10-25T18:28:59.829Z,78.17
2022-10-25T18:31:28.285Z,78.58
2022-10-25T18:33:56.394Z,78.69
2022-10-25T18:36:23.894Z,78.68
2022-10-25T18:38:52.517Z,78.67
2022-10-25T18:41:27.062Z,78.74
2022-10-25T18:43:55.423Z,78.89
2022-10-25T18:46:24.189Z,78.73
2022-10-25T18:48:55.198Z,78.41
2022-10-25T18:51:28.475Z,78.41
2022-10-25T18:54:02.288Z,78.53
2022-10-25T18:56:31.340Z,78.44
2022-10-25T18:58:59.871Z,78.23
2022-10-25T19:01:36.473Z,78.39
2022-10-25T19:04:05.315Z,78.41
2022-10-25T19:06:34.533Z,78.39
2022-10-25T19:09:06.048Z,78.49
2022-10-25T19:11:47.971Z,78.83
2022-10-25T19:14:15.829Z,78.69
2022-10-25T19:16:45.049Z,78.70
2022-10-25T19:19:12.587Z,79.34
2022-10-25T19:21:40.153Z,79.02
2022-10-25T19:24:11.997Z,79.14
2022-10-25T19:26:39.856Z,79.89
2022-10-25T19:29:07.236Z,80.18
2022-10-25T19:31:34.863Z,79.83
2022-10-25T19:34:03.553Z,79.45
2022-10-25T19:36:32.359Z,79.94
2022-10-25T19:39:01.609Z,79.76
2022-10-25T19:41:29.250Z,80.04
2022-10-25T19:44:04.788Z,79.89
2022-10-25T19:46:33.940Z,79.99
2022-10-25T19:49:01.525Z,80.07
2022-10-25T19:51:29.392Z,80.25
2022-10-25T19:53:56.964Z,79.66
2022-10-25T19:56:24.767Z,79.40
2022-10-25T19:58:55.456Z,79.44
2022-10-25T20:01:27.451Z,79.49
2022-10-25T20:04:02.950Z,79.77
2022-10-25T20:06:45.579Z,79.45
2022-10-25T20:09:22.648Z,79.37
2022-10-25T20:11:50.526Z,78.95
2022-10-25T20:14:18.229Z,79.11
2022-10-25T20:16:45.776Z,79.19
2022-10-25T20:19:14.584Z,78.82
2022-10-25T20:21:43.747Z,79.18
2022-10-25T20:24:11.756Z,79.51
2022-10-25T20:26:44.758Z,79.42
2022-10-25T20:29:21.273Z,79.90
2022-10-25T20:31:57.303Z,79.75
2022-10-25T20:34:27.636Z,79.21
2022-10-25T20:36:55.008Z,78.71
2022-10-25T20:39:22.467Z,79.04
2022-10-25T20:41:49.785Z,78.78
2022-10-25T20:44:17.183Z,78.64
2022-10-25T20:46:44.809Z,78.41
2022-10-25T20:49:14.300Z,78.30
2022-10-25T20:51:41.874Z,78.48
2022-10-25T20:54:10.131Z,78.14
2022-10-25T20:56:39.855Z,78.04
2022-10-25T20:59:08.324Z,78.09
2022-10-25T21:01:36.099Z,78.24
2022-10-25T21:04:03.711Z,78.15
2022-10-25T21:06:31.313Z,78.35
2022-10-25T21:08:58.916Z,78.46
2022-10-25T21:11:29.180Z,78.02
2022-10-25T21:13:56.702Z,78.17
2022-10-25T21:16:33.425Z,78.11
2022-10-25T21:19:04.646Z,77.62
2022-10-25T21:21:32.395Z,77.24
2022-10-25T21:24:00.643Z,77.90
2022-10-25T21:26:28.235Z,77.50
2022-10-25T21:28:55.715Z,77.36
2022-10-25T21:31:23.407Z,77.37
2022-10-25T21:33:52.522Z,77.28
2022-10-25T21:36:22.096Z,77.07
2022-10-25T21:38:49.787Z,77.18
2022-10-25T21:41:23.430Z,77.31
2022-10-25T21:43:51.210Z,77.15
2022-10-25T21:46:21.518Z,77.46
2022-10-25T21:48:52.959Z,76.94
2022-10-25T21:51:22.296Z,77.18
2022-10-25T21:53:49.882Z,76.65
2022-10-25T21:56:20.687Z,76.63
2022-10-25T21:58:53.551Z,76.76
2022-10-25T22:01:24.564Z,76.85
2022-10-25T22:03:53.359Z,76.47
2022-10-25T22:06:23.623Z,76.71
2022-10-25T22:08:55.489Z,76.80
2022-10-25T22:11:33.971Z,76.57
2022-10-25T22:14:06.146Z,76.54
2022-10-25T22:16:35.221Z,76.83
2022-10-25T22:19:08.059Z,76.73
2022-10-25T22:21:38.839Z,77.18
2022-10-25T22:24:08.593Z,76.74
2022-10-25T22:26:38.005Z,77.04
2022-10-25T22:29:05.867Z,77.43
2022-10-25T22:31:34.629Z,77.41
2022-10-25T22:34:06.633Z,77.84
2022-10-25T22:36:40.097Z,77.76
2022-10-25T22:39:08.645Z,77.15
2022-10-25T22:41:36.461Z,76.39
2022-10-25T22:44:04.907Z,76.69
2022-10-25T22:46:35.382Z,76.59
2022-10-25T22:49:08.914Z,77.10
2022-10-25T22:51:37.695Z,76.97
2022-10-25T22:54:05.420Z,76.43
2022-10-25T22:56:34.080Z,76.95
2022-10-25T22:59:04.875Z,77.29
2022-10-25T23:01:38.268Z,76.97
2022-10-25T23:04:08.625Z,77.50
2022-10-25T23:06:39.779Z,78.23
2022-10-25T23:09:10.919Z,78.78
2022-10-25T23:11:40.652Z,78.65
2022-10-25T23:14:14.863Z,79.14
2022-10-25T23:16:45.411Z,79.90
2022-10-25T23:19:13.099Z,79.84
2022-10-25T23:21:40.592Z,79.99
2022-10-25T23:24:09.384Z,80.78
2022-10-25T23:26:36.923Z,81.38
2022-10-25T23:29:05.202Z,80.84
2022-10-25T23:31:33.166Z,80.93
2022-10-25T23:34:01.448Z,80.35
2022-10-25T23:36:37.826Z,80.09
2022-10-25T23:39:07.635Z,80.09
2022-10-25T23:41:35.338Z,79.63
2022-10-25T23:44:03.014Z,79.81
2022-10-25T23:46:30.449Z,79.10
2022-10-25T23:48:58.196Z,78.67
2022-10-25T23:51:25.650Z,78.86
2022-10-25T23:53:53.158Z,78.79
2022-10-25T23:56:20.815Z,79.05
2022-10-25T23:58:53.779Z,79.47
